sensor_id;sensor_type;location;lat;lon;timestamp;pressure;altitude;pressure_sealevel;temperature;humidity
9009;BME280;62813;51.424;6.762;2023-02-12T00:01:11;103557.91;;;7.90;88.99
9009;BME280;62813;51.424;6.762;2023-02-12T00:03:38;103566.53;;;7.91;89.17
9009;BME280;62813;51.424;6.762;2023-02-12T00:06:06;103568.28;;;7.92;89.22
9009;BME280;62813;51.424;6.762;2023-02-12T00:08:33;103564.84;;;7.93;89.25
9009;BME280;62813;51.424;6.762;2023-02-12T00:11:08;103563.97;;;7.92;89.07
9009;BME280;62813;51.424;6.762;2023-02-12T00:13:35;103563.09;;;7.92;89.22
9009;BME280;62813;51.424;6.762;2023-02-12T00:16:10;103560.53;;;7.93;89.21
9009;BME280;62813;51.424;6.762;2023-02-12T00:18:45;103558.81;;;7.92;89.37
9009;BME280;62813;51.424;6.762;2023-02-12T00:21:13;103566.56;;;7.94;89.22
9009;BME280;62813;51.424;6.762;2023-02-12T00:23:40;103567.44;;;7.94;89.28
9009;BME280;62813;51.424;6.762;2023-02-12T00:26:09;103559.69;;;7.94;89.35
9009;BME280;62813;51.424;6.762;2023-02-12T00:28:36;103557.13;;;7.96;89.31
9009;BME280;62813;51.424;6.762;2023-02-12T00:31:12;103566.66;;;7.97;89.22
9009;BME280;62813;51.424;6.762;2023-02-12T00:33:39;103570.06;;;7.96;89.14
9009;BME280;62813;51.424;6.762;2023-02-12T00:36:07;103570.91;;;7.95;89.24
9009;BME280;62813;51.424;6.762;2023-02-12T00:38:35;103570.06;;;7.96;89.04
9009;BME280;62813;51.424;6.762;2023-02-12T00:41:01;103563.19;;;7.96;89.17
9009;BME280;62813;51.424;6.762;2023-02-12T00:43:28;103567.53;;;7.99;89.06
9009;BME280;62813;51.424;6.762;2023-02-12T00:45:54;103558.06;;;7.99;88.94
9009;BME280;62813;51.424;6.762;2023-02-12T00:48:22;103563.22;;;7.98;89.31
9009;BME280;62813;51.424;6.762;2023-02-12T00:50:49;103558.03;;;7.98;89.26
9009;BME280;62813;51.424;6.762;2023-02-12T00:53:16;103558.91;;;7.98;88.92
9009;BME280;62813;51.424;6.762;2023-02-12T00:55:42;103560.63;;;7.98;89.07
9009;BME280;62813;51.424;6.762;2023-02-12T00:58:09;103560.59;;;7.96;89.10
9009;BME280;62813;51.424;6.762;2023-02-12T01:00:36;103564.06;;;7.97;88.94
9009;BME280;62813;51.424;6.762;2023-02-12T01:03:04;103559.69;;;7.96;88.84
9009;BME280;62813;51.424;6.762;2023-02-12T01:05:34;103559.69;;;7.96;89.18
9009;BME280;62813;51.424;6.762;2023-02-12T01:08:03;103557.13;;;7.96;88.94
9009;BME280;62813;51.424;6.762;2023-02-12T01:10:30;103558.88;;;7.97;89.06
9009;BME280;62813;51.424;6.762;2023-02-12T01:12:57;103561.47;;;7.97;89.06
9009;BME280;62813;51.424;6.762;2023-02-12T01:15:23;103558.03;;;7.98;88.87
9009;BME280;62813;51.424;6.762;2023-02-12T01:17:51;103552.00;;;7.97;89.27
9009;BME280;62813;51.424;6.762;2023-02-12T01:20:20;103561.47;;;7.97;88.93
9009;BME280;62813;51.424;6.762;2023-02-12T01:22:47;103560.63;;;7.98;88.81
9009;BME280;62813;51.424;6.762;2023-02-12T01:25:14;103552.84;;;7.96;89.03
9009;BME280;62813;51.424;6.762;2023-02-12T01:27:40;103554.53;;;7.96;88.69
9009;BME280;62813;51.424;6.762;2023-02-12T01:30:10;103554.53;;;7.96;88.67
9009;BME280;62813;51.424;6.762;2023-02-12T01:32:37;103551.94;;;7.96;88.83
9009;BME280;62813;51.424;6.762;2023-02-12T01:35:04;103554.53;;;7.96;88.95
9009;BME280;62813;51.424;6.762;2023-02-12T01:37:34;103548.50;;;7.95;88.82
9009;BME280;62813;51.424;6.762;2023-02-12T01:40:01;103543.31;;;7.95;88.77
9009;BME280;62813;51.424;6.762;2023-02-12T01:42:27;103545.03;;;7.95;88.76
9009;BME280;62813;51.424;6.762;2023-02-12T01:47:40;103547.63;;;7.95;88.50
9009;BME280;62813;51.424;6.762;2023-02-12T01:50:10;103551.06;;;7.95;88.77
9009;BME280;62813;51.424;6.762;2023-02-12T01:52:40;103547.63;;;7.95;88.94
9009;BME280;62813;51.424;6.762;2023-02-12T01:55:09;103546.75;;;7.94;88.71
9009;BME280;62813;51.424;6.762;2023-02-12T01:57:40;103554.50;;;7.93;88.83
9009;BME280;62813;51.424;6.762;2023-02-12T02:00:14;103551.03;;;7.91;88.79
9009;BME280;62813;51.424;6.762;2023-02-12T02:02:48;103545.00;;;7.90;88.61
9009;BME280;62813;51.424;6.762;2023-02-12T02:05:22;103544.13;;;7.90;88.87
9009;BME280;62813;51.424;6.762;2023-02-12T02:07:51;103539.81;;;7.90;89.01
9009;BME280;62813;51.424;6.762;2023-02-12T02:10:18;103534.59;;;7.89;88.95
9009;BME280;62813;51.424;6.762;2023-02-12T02:12:45;103539.78;;;7.89;88.69
9009;BME280;62813;51.424;6.762;2023-02-12T02:15:30;103534.59;;;7.87;88.95
9009;BME280;62813;51.424;6.762;2023-02-12T02:20:42;103523.38;;;7.88;88.68
9009;BME280;62813;51.424;6.762;2023-02-12T02:28:54;103532.00;;;7.87;88.87
9009;BME280;62813;51.424;6.762;2023-02-12T02:34:28;103521.63;;;7.85;88.58
9009;BME280;62813;51.424;6.762;2023-02-12T02:37:20;103523.38;;;7.86;88.82
9009;BME280;62813;51.424;6.762;2023-02-12T02:39:54;103516.47;;;7.85;89.07
9009;BME280;62813;51.424;6.762;2023-02-12T02:42:38;103518.19;;;7.85;88.60
9009;BME280;62813;51.424;6.762;2023-02-12T02:45:18;103516.47;;;7.85;88.92
9009;BME280;62813;51.424;6.762;2023-02-12T02:50:43;103519.94;;;7.88;88.81
9009;BME280;62813;51.424;6.762;2023-02-12T02:53:22;103515.63;;;7.86;88.67
9009;BME280;62813;51.424;6.762;2023-02-12T02:55:54;103518.19;;;7.86;88.66
9009;BME280;62813;51.424;6.762;2023-02-12T02:58:26;103522.56;;;7.89;88.62
9009;BME280;62813;51.424;6.762;2023-02-12T03:01:01;103515.63;;;7.86;88.82
9009;BME280;62813;51.424;6.762;2023-02-12T03:03:41;103517.34;;;7.86;88.67
9009;BME280;62813;51.424;6.762;2023-02-12T03:09:13;103529.41;;;7.85;88.87
9009;BME280;62813;51.424;6.762;2023-02-12T03:11:41;103525.94;;;7.85;88.82
9009;BME280;62813;51.424;6.762;2023-02-12T03:14:26;103522.50;;;7.86;88.53
9009;BME280;62813;51.424;6.762;2023-02-12T03:17:15;103516.47;;;7.85;88.55
9009;BME280;62813;51.424;6.762;2023-02-12T03:19:52;103528.53;;;7.86;88.72
9009;BME280;62813;51.424;6.762;2023-02-12T03:22:24;103519.91;;;7.86;88.42
9009;BME280;62813;51.424;6.762;2023-02-12T03:25:00;103519.91;;;7.84;88.28
9009;BME280;62813;51.424;6.762;2023-02-12T03:27:30;103525.94;;;7.83;88.59
9009;BME280;62813;51.424;6.762;2023-02-12T03:29:59;103519.84;;;7.81;88.47
9009;BME280;62813;51.424;6.762;2023-02-12T03:32:29;103525.91;;;7.82;88.31
9009;BME280;62813;51.424;6.762;2023-02-12T03:35:34;103524.19;;;7.82;88.63
9009;BME280;62813;51.424;6.762;2023-02-12T03:38:26;103525.94;;;7.83;88.14
9009;BME280;62813;51.424;6.762;2023-02-12T03:41:15;103525.94;;;7.83;88.18
9009;BME280;62813;51.424;6.762;2023-02-12T03:43:49;103537.13;;;7.82;88.35
9009;BME280;62813;51.424;6.762;2023-02-12T03:49:19;103533.63;;;7.80;88.26
9009;BME280;62813;51.424;6.762;2023-02-12T03:51:46;103524.13;;;7.79;88.32
9009;BME280;62813;51.424;6.762;2023-02-12T03:54:15;103532.75;;;7.80;88.59
9009;BME280;62813;51.424;6.762;2023-02-12T03:57:02;103525.84;;;7.79;88.41
9009;BME280;62813;51.424;6.762;2023-02-12T03:59:34;103530.16;;;7.78;88.27
9009;BME280;62813;51.424;6.762;2023-02-12T04:02:02;103535.31;;;7.78;88.38
9009;BME280;62813;51.424;6.762;2023-02-12T04:04:29;103534.44;;;7.78;88.26
9009;BME280;62813;51.424;6.762;2023-02-12T04:06:57;103531.00;;;7.77;88.44
9009;BME280;62813;51.424;6.762;2023-02-12T04:09:25;103534.47;;;7.79;88.28
9009;BME280;62813;51.424;6.762;2023-02-12T04:14:55;103538.75;;;7.77;88.13
9009;BME280;62813;51.424;6.762;2023-02-12T04:17:37;103543.09;;;7.78;88.26
9009;BME280;62813;51.424;6.762;2023-02-12T04:29:16;103554.22;;;7.74;88.18
9009;BME280;62813;51.424;6.762;2023-02-12T04:39:51;103561.97;;;7.74;88.67
9009;BME280;62813;51.424;6.762;2023-02-12T04:42:18;103556.78;;;7.74;88.54
9009;BME280;62813;51.424;6.762;2023-02-12T04:44:45;103563.69;;;7.74;88.42
9009;BME280;62813;51.424;6.762;2023-02-12T04:47:13;103568.81;;;7.71;88.20
9009;BME280;62813;51.424;6.762;2023-02-12T04:49:40;103573.13;;;7.70;88.69
9009;BME280;62813;51.424;6.762;2023-02-12T04:52:07;103570.56;;;7.72;88.45
9009;BME280;62813;51.424;6.762;2023-02-12T04:54:35;103574.00;;;7.72;88.50
9009;BME280;62813;51.424;6.762;2023-02-12T04:57:02;103574.88;;;7.73;88.77
9009;BME280;62813;51.424;6.762;2023-02-12T04:59:29;103573.16;;;7.73;88.52
9009;BME280;62813;51.424;6.762;2023-02-12T05:01:55;103574.00;;;7.72;88.63
9009;BME280;62813;51.424;6.762;2023-02-12T05:04:22;103576.59;;;7.72;88.49
9009;BME280;62813;51.424;6.762;2023-02-12T05:06:48;103573.16;;;7.73;88.89
9009;BME280;62813;51.424;6.762;2023-02-12T05:09:17;103574.00;;;7.72;88.45
9009;BME280;62813;51.424;6.762;2023-02-12T05:11:44;103580.03;;;7.71;88.72
9009;BME280;62813;51.424;6.762;2023-02-12T05:14:11;103575.69;;;7.69;88.64
9009;BME280;62813;51.424;6.762;2023-02-12T05:16:38;103570.53;;;7.70;88.87
9009;BME280;62813;51.424;6.762;2023-02-12T05:19:07;103580.03;;;7.71;88.78
9009;BME280;62813;51.424;6.762;2023-02-12T05:21:35;103583.47;;;7.70;88.93
9009;BME280;62813;51.424;6.762;2023-02-12T05:24:02;103579.13;;;7.69;88.61
9009;BME280;62813;51.424;6.762;2023-02-12T05:26:29;103582.59;;;7.70;88.74
9009;BME280;62813;51.424;6.762;2023-02-12T05:28:55;103587.78;;;7.71;88.80
9009;BME280;62813;51.424;6.762;2023-02-12T05:31:24;103586.03;;;7.70;88.69
9009;BME280;62813;51.424;6.762;2023-02-12T05:33:51;103586.94;;;7.72;88.84
9009;BME280;62813;51.424;6.762;2023-02-12T05:36:22;103586.94;;;7.72;88.76
9009;BME280;62813;51.424;6.762;2023-02-12T05:38:50;103593.84;;;7.73;88.94
9009;BME280;62813;51.424;6.762;2023-02-12T05:41:20;103592.97;;;7.73;88.62
9009;BME280;62813;51.424;6.762;2023-02-12T05:43:48;103588.66;;;7.73;88.51
9009;BME280;62813;51.424;6.762;2023-02-12T05:46:16;103592.09;;;7.71;88.59
9009;BME280;62813;51.424;6.762;2023-02-12T05:48:43;103593.81;;;7.72;88.73
9009;BME280;62813;51.424;6.762;2023-02-12T05:51:15;103595.53;;;7.71;88.69
9009;BME280;62813;51.424;6.762;2023-02-12T05:53:42;103599.00;;;7.72;88.80
9009;BME280;62813;51.424;6.762;2023-02-12T05:58:36;103601.59;;;7.73;88.52
9009;BME280;62813;51.424;6.762;2023-02-12T06:01:12;103594.66;;;7.71;88.70
9009;BME280;62813;51.424;6.762;2023-02-12T06:03:39;103597.25;;;7.69;88.56
9009;BME280;62813;51.424;6.762;2023-02-12T06:06:08;103592.09;;;7.71;88.64
9009;BME280;62813;51.424;6.762;2023-02-12T06:08:37;103597.25;;;7.69;88.53
9009;BME280;62813;51.424;6.762;2023-02-12T06:11:06;103592.06;;;7.69;88.57
9009;BME280;62813;51.424;6.762;2023-02-12T06:13:33;103595.53;;;7.70;88.64
9009;BME280;62813;51.424;6.762;2023-02-12T06:16:00;103589.47;;;7.69;88.79
9009;BME280;62813;51.424;6.762;2023-02-12T06:18:27;103590.34;;;7.70;88.75
9009;BME280;62813;51.424;6.762;2023-02-12T06:20:56;103589.50;;;7.71;88.80
9009;BME280;62813;51.424;6.762;2023-02-12T06:23:24;103588.63;;;7.70;88.72
9009;BME280;62813;51.424;6.762;2023-02-12T06:25:57;103594.66;;;7.71;88.39
9009;BME280;62813;51.424;6.762;2023-02-12T06:28:24;103596.38;;;7.70;88.57
9009;BME280;62813;51.424;6.762;2023-02-12T06:30:50;103592.94;;;7.70;88.27
9009;BME280;62813;51.424;6.762;2023-02-12T06:33:17;103599.84;;;7.71;88.59
9009;BME280;62813;51.424;6.762;2023-02-12T06:35:44;103600.72;;;7.73;88.29
9009;BME280;62813;51.424;6.762;2023-02-12T06:38:14;103593.81;;;7.70;88.43
9009;BME280;62813;51.424;6.762;2023-02-12T06:40:44;103599.81;;;7.68;88.33
9009;BME280;62813;51.424;6.762;2023-02-12T06:43:11;103605.84;;;7.68;88.42
9009;BME280;62813;51.424;6.762;2023-02-12T06:45:37;103609.22;;;7.66;88.30
9009;BME280;62813;51.424;6.762;2023-02-12T06:48:04;103600.59;;;7.65;88.61
9009;BME280;62813;51.424;6.762;2023-02-12T06:50:32;103604.91;;;7.66;88.63
9009;BME280;62813;51.424;6.762;2023-02-12T06:53:01;103607.50;;;7.66;88.45
9009;BME280;62813;51.424;6.762;2023-02-12T06:55:30;103601.47;;;7.66;88.67
9009;BME280;62813;51.424;6.762;2023-02-12T06:57:58;103611.81;;;7.66;88.73
9009;BME280;62813;51.424;6.762;2023-02-12T07:00:25;103611.81;;;7.67;88.76
9009;BME280;62813;51.424;6.762;2023-02-12T07:02:53;103615.25;;;7.66;88.81
9009;BME280;62813;51.424;6.762;2023-02-12T07:05:23;103617.91;;;7.69;88.58
9009;BME280;62813;51.424;6.762;2023-02-12T07:07:50;103620.50;;;7.69;88.62
9009;BME280;62813;51.424;6.762;2023-02-12T07:10:17;103622.25;;;7.70;88.69
9009;BME280;62813;51.424;6.762;2023-02-12T07:12:46;103617.06;;;7.70;88.96
9009;BME280;62813;51.424;6.762;2023-02-12T07:15:13;103629.16;;;7.71;88.55
9009;BME280;62813;51.424;6.762;2023-02-12T07:17:40;103623.97;;;7.71;88.86
9009;BME280;62813;51.424;6.762;2023-02-12T07:20:07;103623.97;;;7.71;88.99
9009;BME280;62813;51.424;6.762;2023-02-12T07:22:36;103630.03;;;7.73;88.75
9009;BME280;62813;51.424;6.762;2023-02-12T07:25:03;103622.25;;;7.72;88.63
9009;BME280;62813;51.424;6.762;2023-02-12T07:27:30;103624.88;;;7.73;88.71
9009;BME280;62813;51.424;6.762;2023-02-12T07:29:56;103632.69;;;7.76;88.81
9009;BME280;62813;51.424;6.762;2023-02-12T07:32:23;103638.75;;;7.78;88.88
9009;BME280;62813;51.424;6.762;2023-02-12T07:34:50;103633.56;;;7.78;88.45
9009;BME280;62813;51.424;6.762;2023-02-12T07:37:16;103633.56;;;7.78;88.48
9009;BME280;62813;51.424;6.762;2023-02-12T07:39:48;103634.44;;;7.79;88.49
9009;BME280;62813;51.424;6.762;2023-02-12T07:42:15;103635.09;;;7.67;88.58
9009;BME280;62813;51.424;6.762;2023-02-12T07:44:44;103635.09;;;7.67;88.46
9009;BME280;62813;51.424;6.762;2023-02-12T07:47:11;103636.00;;;7.68;88.70
9009;BME280;62813;51.424;6.762;2023-02-12T07:49:37;103634.34;;;7.73;88.41
9009;BME280;62813;51.424;6.762;2023-02-12T07:52:04;103635.28;;;7.76;88.64
9009;BME280;62813;51.424;6.762;2023-02-12T07:54:30;103641.38;;;7.81;88.53
9009;BME280;62813;51.424;6.762;2023-02-12T07:56:57;103636.28;;;7.84;88.57
9009;BME280;62813;51.424;6.762;2023-02-12T07:59:23;103638.88;;;7.88;87.98
9009;BME280;62813;51.424;6.762;2023-02-12T08:01:51;103645.00;;;7.91;88.17
9009;BME280;62813;51.424;6.762;2023-02-12T08:04:20;103643.28;;;7.92;88.06
9009;BME280;62813;51.424;6.762;2023-02-12T08:06:50;103647.59;;;7.93;88.13
9009;BME280;62813;51.424;6.762;2023-02-12T08:09:19;103658.88;;;7.96;88.17
9009;BME280;62813;51.424;6.762;2023-02-12T08:11:47;103659.78;;;7.98;88.29
9009;BME280;62813;51.424;6.762;2023-02-12T08:14:15;103657.25;;;8.03;88.71
9009;BME280;62813;51.424;6.762;2023-02-12T08:16:44;103659.94;;;8.09;88.84
9009;BME280;62813;51.424;6.762;2023-02-12T08:19:11;103662.59;;;8.13;88.32
9009;BME280;62813;51.424;6.762;2023-02-12T08:21:50;103660.09;;;8.18;88.73
9009;BME280;62813;51.424;6.762;2023-02-12T08:24:18;103663.59;;;8.22;88.36
9009;BME280;62813;51.424;6.762;2023-02-12T08:26:45;103667.09;;;8.25;88.62
9009;BME280;62813;51.424;6.762;2023-02-12T08:29:14;103661.13;;;8.29;88.63
9009;BME280;62813;51.424;6.762;2023-02-12T08:31:43;103674.13;;;8.34;88.30
9009;BME280;62813;51.424;6.762;2023-02-12T08:34:21;103682.78;;;8.37;88.06
9009;BME280;62813;51.424;6.762;2023-02-12T08:36:49;103677.63;;;8.37;88.28
9009;BME280;62813;51.424;6.762;2023-02-12T08:39:17;103681.13;;;8.39;88.02
9009;BME280;62813;51.424;6.762;2023-02-12T08:41:44;103680.28;;;8.40;87.82
9009;BME280;62813;51.424;6.762;2023-02-12T08:44:11;103684.56;;;8.40;87.47
9009;BME280;62813;51.424;6.762;2023-02-12T08:46:43;103684.59;;;8.41;87.52
9009;BME280;62813;51.424;6.762;2023-02-12T08:49:23;103675.97;;;8.43;87.60
9009;BME280;62813;51.424;6.762;2023-02-12T08:51:52;103670.88;;;8.46;87.69
9009;BME280;62813;51.424;6.762;2023-02-12T08:54:22;103676.16;;;8.55;87.64
9009;BME280;62813;51.424;6.762;2023-02-12T08:56:49;103678.78;;;8.56;87.21
9009;BME280;62813;51.424;6.762;2023-02-12T08:59:16;103677.94;;;8.59;87.34
9009;BME280;62813;51.424;6.762;2023-02-12T09:01:43;103685.75;;;8.62;87.38
9009;BME280;62813;51.424;6.762;2023-02-12T09:04:15;103678.94;;;8.67;87.39
9009;BME280;62813;51.424;6.762;2023-02-12T09:06:45;103684.13;;;8.70;87.08
9009;BME280;62813;51.424;6.762;2023-02-12T09:09:12;103685.09;;;8.75;87.01
9009;BME280;62813;51.424;6.762;2023-02-12T09:11:39;103686.84;;;8.79;86.77
9009;BME280;62813;51.424;6.762;2023-02-12T09:14:09;103680.00;;;8.81;86.44
9009;BME280;62813;51.424;6.762;2023-02-12T09:16:36;103685.19;;;8.83;86.21
9009;BME280;62813;51.424;6.762;2023-02-12T09:19:03;103680.88;;;8.83;86.25
9009;BME280;62813;51.424;6.762;2023-02-12T09:21:30;103692.09;;;8.85;85.97
9009;BME280;62813;51.424;6.762;2023-02-12T09:23:56;103696.41;;;8.83;86.21
9009;BME280;62813;51.424;6.762;2023-02-12T09:26:24;103694.78;;;8.90;86.22
9009;BME280;62813;51.424;6.762;2023-02-12T09:28:54;103692.22;;;8.94;85.80
9009;BME280;62813;51.424;6.762;2023-02-12T09:31:23;103690.56;;;9.00;85.81
9009;BME280;62813;51.424;6.762;2023-02-12T09:33:53;103693.16;;;9.01;85.21
9009;BME280;62813;51.424;6.762;2023-02-12T09:36:21;103688.09;;;9.06;85.07
9009;BME280;62813;51.424;6.762;2023-02-12T09:38:47;103688.97;;;9.08;85.00
9009;BME280;62813;51.424;6.762;2023-02-12T09:44:31;103688.25;;;9.19;84.27
9009;BME280;62813;51.424;6.762;2023-02-12T09:52:49;103689.22;;;9.29;82.77
9009;BME280;62813;51.424;6.762;2023-02-12T09:55:17;103681.44;;;9.29;82.76
9009;BME280;62813;51.424;6.762;2023-02-12T09:57:45;103683.22;;;9.33;82.55
9009;BME280;62813;51.424;6.762;2023-02-12T10:00:20;103689.28;;;9.35;82.38
9009;BME280;62813;51.424;6.762;2023-02-12T10:02:51;103692.81;;;9.40;82.16
9009;BME280;62813;51.424;6.762;2023-02-12T10:05:23;103685.81;;;9.33;81.18
9009;BME280;62813;51.424;6.762;2023-02-12T10:08:01;103689.28;;;9.35;81.03
9009;BME280;62813;51.424;6.762;2023-02-12T10:10:38;103690.22;;;9.42;80.45
9009;BME280;62813;51.424;6.762;2023-02-12T10:15:57;103692.00;;;9.44;78.52
9009;BME280;62813;51.424;6.762;2023-02-12T10:26:59;103691.97;;;9.41;77.28
9009;BME280;62813;51.424;6.762;2023-02-12T10:29:37;103692.78;;;9.37;76.56
9009;BME280;62813;51.424;6.762;2023-02-12T10:41:48;103691.22;;;9.52;76.02
9009;BME280;62813;51.424;6.762;2023-02-12T10:44:18;103693.03;;;9.60;75.83
9009;BME280;62813;51.424;6.762;2023-02-12T10:46:45;103689.53;;;9.57;76.13
9009;BME280;62813;51.424;6.762;2023-02-12T10:49:14;103687.00;;;9.61;75.63
9009;BME280;62813;51.424;6.762;2023-02-12T10:54:41;103686.13;;;9.61;73.65
9009;BME280;62813;51.424;6.762;2023-02-12T10:57:26;103685.25;;;9.60;73.65
9009;BME280;62813;51.424;6.762;2023-02-12T10:59:56;103678.34;;;9.62;74.10
9009;BME280;62813;51.424;6.762;2023-02-12T11:04:51;103679.25;;;9.66;73.26
9009;BME280;62813;51.424;6.762;2023-02-12T11:07:19;103672.38;;;9.69;73.28
9009;BME280;62813;51.424;6.762;2023-02-12T11:09:48;103669.81;;;9.74;74.10
9009;BME280;62813;51.424;6.762;2023-02-12T11:14:53;103676.75;;;9.78;73.96
9009;BME280;62813;51.424;6.762;2023-02-12T11:17:36;103673.34;;;9.82;74.21
9009;BME280;62813;51.424;6.762;2023-02-12T11:20:25;103671.69;;;9.89;74.34
9009;BME280;62813;51.424;6.762;2023-02-12T11:23:02;103669.16;;;9.96;74.55
9009;BME280;62813;51.424;6.762;2023-02-12T11:25:32;103664.00;;;10.02;74.90
9009;BME280;62813;51.424;6.762;2023-02-12T11:28:11;103663.19;;;10.08;74.74
9009;BME280;62813;51.424;6.762;2023-02-12T11:30:58;103658.88;;;10.12;74.82
9009;BME280;62813;51.424;6.762;2023-02-12T11:33:28;103660.63;;;10.13;74.82
9009;BME280;62813;51.424;6.762;2023-02-12T11:36:01;103656.34;;;10.19;74.04
9009;BME280;62813;51.424;6.762;2023-02-12T11:38:35;103646.00;;;10.24;74.37
9009;BME280;62813;51.424;6.762;2023-02-12T11:41:08;103652.06;;;10.26;74.35
9009;BME280;62813;51.424;6.762;2023-02-12T11:43:44;103652.94;;;10.26;74.58
9009;BME280;62813;51.424;6.762;2023-02-12T11:46:18;103654.66;;;10.26;73.71
9009;BME280;62813;51.424;6.762;2023-02-12T11:48:45;103653.78;;;10.25;73.63
9009;BME280;62813;51.424;6.762;2023-02-12T11:51:39;103649.41;;;10.17;73.69
9009;BME280;62813;51.424;6.762;2023-02-12T11:54:05;103650.22;;;10.13;73.59
9009;BME280;62813;51.424;6.762;2023-02-12T11:56:41;103651.16;;;10.21;73.54
9009;BME280;62813;51.424;6.762;2023-02-12T11:59:29;103634.66;;;10.10;73.12
9009;BME280;62813;51.424;6.762;2023-02-12T12:02:00;103643.31;;;10.10;73.72
9009;BME280;62813;51.424;6.762;2023-02-12T12:04:32;103640.75;;;10.18;72.88
9009;BME280;62813;51.424;6.762;2023-02-12T12:07:13;103643.31;;;10.12;72.95
9009;BME280;62813;51.424;6.762;2023-02-12T12:09:47;103641.56;;;10.08;73.12
9009;BME280;62813;51.424;6.762;2023-02-12T12:12:20;103634.63;;;10.06;73.40
9009;BME280;62813;51.424;6.762;2023-02-12T12:14:52;103638.94;;;10.03;72.96
9009;BME280;62813;51.424;6.762;2023-02-12T12:17:54;103626.81;;;10.03;72.88
9009;BME280;62813;51.424;6.762;2023-02-12T12:20:46;103625.13;;;10.10;73.18
9009;BME280;62813;51.424;6.762;2023-02-12T12:23:37;103625.13;;;10.09;72.61
9009;BME280;62813;51.424;6.762;2023-02-12T12:26:10;103620.75;;;10.03;72.80
9009;BME280;62813;51.424;6.762;2023-02-12T12:28:46;103627.63;;;9.95;72.44
9009;BME280;62813;51.424;6.762;2023-02-12T12:31:21;103614.66;;;9.93;72.68
9009;BME280;62813;51.424;6.762;2023-02-12T12:39:36;103600.81;;;9.99;72.57
9009;BME280;62813;51.424;6.762;2023-02-12T12:48:08;103596.53;;;10.02;72.72
9009;BME280;62813;51.424;6.762;2023-02-12T13:15:40;103569.72;;;10.05;72.78
9009;BME280;62813;51.424;6.762;2023-02-12T13:18:27;103561.94;;;10.03;72.94
9009;BME280;62813;51.424;6.762;2023-02-12T13:21:38;103563.66;;;10.01;72.63
9009;BME280;62813;51.424;6.762;2023-02-12T13:26:56;103556.75;;;10.00;72.68
9009;BME280;62813;51.424;6.762;2023-02-12T13:29:49;103550.69;;;10.01;73.00
9009;BME280;62813;51.424;6.762;2023-02-12T13:32:34;103548.97;;;10.02;72.49
9009;BME280;62813;51.424;6.762;2023-02-12T13:35:05;103543.78;;;10.02;73.12
9009;BME280;62813;51.424;6.762;2023-02-12T13:40:07;103545.47;;;10.00;72.50
9009;BME280;62813;51.424;6.762;2023-02-12T13:42:42;103543.75;;;9.99;73.00
9009;BME280;62813;51.424;6.762;2023-02-12T13:50:43;103548.97;;;10.03;72.75
9009;BME280;62813;51.424;6.762;2023-02-12T13:53:26;103547.25;;;10.04;72.50
9009;BME280;62813;51.424;6.762;2023-02-12T13:56:05;103545.50;;;10.03;72.50
9009;BME280;62813;51.424;6.762;2023-02-12T14:01:12;103546.38;;;10.02;72.68
9009;BME280;62813;51.424;6.762;2023-02-12T14:09:41;103540.31;;;10.01;72.40
9009;BME280;62813;51.424;6.762;2023-02-12T14:14:54;103540.28;;;9.98;72.73
9009;BME280;62813;51.424;6.762;2023-02-12T14:19:55;103553.25;;;10.00;72.69
9009;BME280;62813;51.424;6.762;2023-02-12T14:24:54;103542.00;;;9.95;72.91
9009;BME280;62813;51.424;6.762;2023-02-12T14:40:46;103544.56;;;9.89;72.54
9009;BME280;62813;51.424;6.762;2023-02-12T14:43:26;103541.91;;;9.86;72.85
9009;BME280;62813;51.424;6.762;2023-02-12T14:45:55;103543.69;;;9.87;72.59
9009;BME280;62813;51.424;6.762;2023-02-12T14:48:40;103538.50;;;9.90;72.11
9009;BME280;62813;51.424;6.762;2023-02-12T14:51:18;103544.56;;;9.87;72.75
9009;BME280;62813;51.424;6.762;2023-02-12T14:53:46;103539.31;;;9.83;72.73
9009;BME280;62813;51.424;6.762;2023-02-12T14:56:18;103546.25;;;9.85;72.59
9009;BME280;62813;51.424;6.762;2023-02-12T14:58:47;103539.38;;;9.87;72.84
9009;BME280;62813;51.424;6.762;2023-02-12T15:01:15;103545.41;;;9.88;73.23
9009;BME280;62813;51.424;6.762;2023-02-12T15:03:48;103544.50;;;9.84;73.08
9009;BME280;62813;51.424;6.762;2023-02-12T15:06:34;103544.47;;;9.78;72.94
9009;BME280;62813;51.424;6.762;2023-02-12T15:09:13;103539.31;;;9.81;72.78
9009;BME280;62813;51.424;6.762;2023-02-12T15:11:49;103533.25;;;9.81;72.98
9009;BME280;62813;51.424;6.762;2023-02-12T15:14:22;103534.13;;;9.81;72.68
9009;BME280;62813;51.424;6.762;2023-02-12T15:17:01;103527.22;;;9.80;72.80
9009;BME280;62813;51.424;6.762;2023-02-12T15:19:58;103525.44;;;9.73;73.13
9009;BME280;62813;51.424;6.762;2023-02-12T15:22:35;103523.66;;;9.69;73.29
9009;BME280;62813;51.424;6.762;2023-02-12T15:25:26;103523.66;;;9.67;73.31
9009;BME280;62813;51.424;6.762;2023-02-12T15:28:28;103520.22;;;9.70;73.11
9009;BME280;62813;51.424;6.762;2023-02-12T15:31:00;103515.03;;;9.70;73.13
9009;BME280;62813;51.424;6.762;2023-02-12T15:33:33;103515.03;;;9.70;72.97
9009;BME280;62813;51.424;6.762;2023-02-12T15:36:01;103517.63;;;9.70;73.12
9009;BME280;62813;51.424;6.762;2023-02-12T15:38:37;103514.97;;;9.64;72.92
9009;BME280;62813;51.424;6.762;2023-02-12T15:41:05;103514.09;;;9.63;73.14
9009;BME280;62813;51.424;6.762;2023-02-12T15:43:34;103514.97;;;9.61;73.52
9009;BME280;62813;51.424;6.762;2023-02-12T15:46:03;103514.09;;;9.65;73.04
9009;BME280;62813;51.424;6.762;2023-02-12T15:48:34;103502.91;;;9.66;73.32
9009;BME280;62813;51.424;6.762;2023-02-12T15:51:19;103504.63;;;9.65;73.15
9009;BME280;62813;51.424;6.762;2023-02-12T15:53:48;103501.13;;;9.62;73.58
9009;BME280;62813;51.424;6.762;2023-02-12T15:56:17;103498.53;;;9.63;73.19
9009;BME280;62813;51.424;6.762;2023-02-12T15:58:52;103502.00;;;9.59;73.80
9009;BME280;62813;51.424;6.762;2023-02-12T16:01:24;103499.41;;;9.61;73.32
9009;BME280;62813;51.424;6.762;2023-02-12T16:03:57;103506.31;;;9.63;73.32
9009;BME280;62813;51.424;6.762;2023-02-12T16:06:25;103503.75;;;9.65;73.58
9009;BME280;62813;51.424;6.762;2023-02-12T16:09:15;103506.31;;;9.65;73.51
9009;BME280;62813;51.424;6.762;2023-02-12T16:11:44;103496.81;;;9.64;73.84
9009;BME280;62813;51.424;6.762;2023-02-12T16:14:24;103504.59;;;9.64;73.93